D/T METAR WX W/DIR W/SPE G/SPE TEMP DEWP
3/07/20 21:56 EGVA 032056Z AUTO 22015G23KT 9999 OVC012 14/13 A2989 RMK AO2 SLP124 60003 T01440133 55010 $ SW (220°) 17.3mph 26.5mph 14.4°C 13.3°C
3/07/20 20:56 EGVA 031956Z AUTO 22015KT 9999 OVC012 14/13 A2990 RMK AO2 PK WND 22026/10 DZE00RAB00E31DZB31E33 SLP128 P0001 T01430133 $ SW (220°) 17.3mph 14.3°C 13.3°C
3/07/20 20:33 EGVA 031933Z AUTO 22014G21KT 9999 OVC011 14/13 A2990 RMK AO2 DZE00RAB00E31DZB31E33 SLP128 $ SW (220°) 16.1mph 24.2mph 14°C 13°C
3/07/20 19:56 EGVA 031856Z AUTO 21017G25KT 9999 -DZ OVC013 14/14 A2989 RMK AO2 RAE55DZB55 SLP124 P0002 T01420136 $ -DZ SSW (210°) 19.6mph 28.8mph 14.2°C 13.6°C
3/07/20 19:01 EGVA 031801Z AUTO 22014G19KT 9999 -RA OVC013 14/14 A2992 RMK AO2 SLP135 $ -RA SW (220°) 16.1mph 21.9mph 14°C 14°C
3/07/20 18:26 EGVA 031726Z AUTO 22014G19KT 9999 -RA BKN018 OVC026 15/13 A2993 RMK AO2 CIG 018V022 SLP138 $ -RA SW (220°) 16.1mph 21.9mph 15°C 13°C
3/07/20 17:56 EGVA 031656Z AUTO 22015KT 9999 -RA BKN026 BKN031 OVC045 15/13 A2993 RMK AO2 RAB13 CIG 024 RWY09 SLP138 P0001 T01530130 $ -RA SW (220°) 17.3mph 15.3°C 13°C
3/07/20 17:28 EGVA 031628Z AUTO 23017G21KT 9999 -RA BKN028 OVC033 16/13 A2993 RMK AO2 RAB13 CIG 027 RWY09 SLP138 $ -RA SW (230°) 19.6mph 24.2mph 16°C 13°C
3/07/20 17:13 EGVA 031613Z AUTO 23013G23KT 9999 -RA BKN028 OVC033 17/12 A2993 RMK AO2 RAB13 SLP138 $ -RA SW (230°) 15.0mph 26.5mph 17°C 12°C
3/07/20 15:56 EGVA 031456Z AUTO 22019KT 9999 BKN034 19/12 A2993 RMK AO2 SLP138 60000 T01850116 57012 $ SW (220°) 21.9mph 18.5°C 11.6°C
3/07/20 14:56 EGVA 031356Z AUTO 23015G20KT 9999 BKN037 BKN110 18/11 A2995 RMK AO2 RAE07DZB07E19 SLP145 P0000 T01780111 $ SW (230°) 17.3mph 23.0mph 17.8°C 11.1°C
3/07/20 14:24 EGVA 031324Z AUTO 23015KT 9999 SCT034 SCT120 18/11 A2995 RMK AO2 RAE07DZB07E19 SLP145 $ SW (230°) 17.3mph 18°C 11°C
3/07/20 14:19 EGVA 031319Z AUTO 24014KT 9999 BKN033 18/12 A2995 RMK AO2 RAE07DZB07E19 SLP145 $ WSW (240°) 16.1mph 18°C 12°C
3/07/20 13:47 EGVA 031247Z AUTO 24013G22KT 9999 -RA OVC032 17/11 A2996 RMK AO2 RAB47 SLP148 $ -RA WSW (240°) 15.0mph 25.3mph 17°C 11°C
3/07/20 12:56 EGVA 031156Z AUTO 23013G17KT 9999 OVC032 17/11 A2997 RMK AO2 SLP152 70038 T01710111 10172 20122 58005 $ SW (230°) 15.0mph 19.6mph 17.1°C 11.1°C
3/07/20 11:56 EGVA 031056Z AUTO 23015G22KT 9999 OVC026 16/11 A2998 RMK AO2 SLP155 T01610108 $ SW (230°) 17.3mph 25.3mph 16.1°C 10.8°C
3/07/20 10:56 EGVA 030956Z AUTO 23012G19KT 9999 OVC024 15/11 A2999 RMK AO2 SLP158 T01530107 $ SW (230°) 13.8mph 21.9mph 15.3°C 10.7°C
3/07/20 09:56 EGVA 030856Z AUTO 24014G20KT 9999 OVC020 14/11 A2999 RMK AO2 SLP158 T01440110 53001 $ WSW (240°) 16.1mph 23.0mph 14.4°C 11°C
3/07/20 09:46 EGVA 030846Z AUTO 23013G21KT 9999 OVC020 14/11 A2999 RMK AO2 OVC V BKN SLP158 $ SW (230°) 15.0mph 24.2mph 14°C 11°C
3/07/20 08:56 EGVA 030756Z AUTO 23014G19KT 9999 OVC022 14/12 A2998 RMK AO2 CIG 019V027 OVC V BKN SLP155 T01420115 $ SW (230°) 16.1mph 21.9mph 14.2°C 11.5°C
3/07/20 08:31 EGVA 030731Z AUTO 23010KT 9999 BKN029 BKN034 OVC110 14/11 A2998 RMK AO2 SLP154 $ SW (230°) 11.5mph 14°C 11°C
3/07/20 08:16 EGVA 030716Z AUTO 23012KT 9999 BKN033 OVC110 14/12 A2998 RMK AO2 SLP155 $ SW (230°) 13.8mph 14°C 12°C
3/07/20 07:31 EGVA 030631Z AUTO 23010KT 9999 FEW021 SCT032 OVC110 13/12 A2999 RMK AO2 SLP158 $ SW (230°) 11.5mph 13°C 12°C
3/07/20 06:56 EGVA 030556Z AUTO 22011KT 9999 BKN110 12/11 A2998 RMK AO2 SLP155 T01220113 10123 20098 58004 $ SW (220°) 12.7mph 12.2°C 11.3°C
3/07/20 05:56 EGVA 030456Z AUTO 23009KT 9999 SCT036 BKN100 OVC130 12/11 A2999 RMK AO2 SLP158 T01180112 $ SW (230°) 10.4mph 11.8°C 11.2°C
3/07/20 04:56 EGVA 030356Z AUTO 23006KT 9999 SCT013 11/11 A3000 RMK AO2 SLP162 T01090106 $ SW (230°) 6.9mph 10.9°C 10.6°C
3/07/20 04:26 EGVA 030326Z AUTO 23007KT 9999 SCT019 11/11 A2999 RMK AO2 SLP158 $ SW (230°) 8.1mph 11°C 11°C
3/07/20 04:11 EGVA 030311Z AUTO 22007KT 9999 BKN020 BKN140 11/11 A2999 RMK AO2 CIG 018V140 SLP159 $ SW (220°) 8.1mph 11°C 11°C
3/07/20 02:56 EGVA 030156Z AUTO 22005KT 9999 BKN150 10/10 A3000 RMK AO2 SLP162 T01040104 $ SW (220°) 5.8mph 10.4°C 10.4°C
3/07/20 01:56 EGVA 030056Z AUTO 22006KT 9999 CLR 11/10 A2999 RMK AO2 SLP158 T01120104 $ SW (220°) 6.9mph 11.2°C 10.4°C
3/07/20 00:56 EGVA 022356Z AUTO 26008KT 9999 CLR 12/11 A3000 RMK AO2 SLP161 T01170111 10170 20112 401980100 52007 $ W (260°) 9.2mph 11.7°C 11.1°C
2/07/20 23:56 EGVA 022256Z AUTO 27008KT 9999 CLR 12/12 A3000 RMK AO2 SLP161 T01220117 $ W (270°) 9.2mph 12.2°C 11.7°C
2/07/20 22:56 EGVA 022156Z AUTO 25005KT 9999 CLR 12/11 A2999 RMK AO2 SLP158 T01210110 $ WSW (250°) 5.8mph 12.1°C 11°C
2/07/20 20:56 EGVA 021956Z AUTO 27003KT 9999 FEW041 16/15 A2995 RMK AO2 SLP144 T01630148 $ W (270°) 3.5mph 16.3°C 14.8°C
2/07/20 20:16 EGVA 021916Z AUTO 30003KT 9999 FEW026 SCT043 OVC050 17/16 A2995 RMK AO2 SLP144 $ WNW (300°) 3.5mph 17°C 16°C
2/07/20 19:46 EGVA 021846Z AUTO 00000KT 9999 BKN040 OVC085 16/15 A2994 RMK AO2 SLP141 $ N (0°) 16°C 15°C
2/07/20 19:11 EGVA 021811Z AUTO 00000KT 9999 SCT027 SCT035 OVC090 16/15 A2993 RMK AO2 SLP138 $ N (0°) 16°C 15°C
2/07/20 18:26 EGVA 021726Z AUTO 18003KT 9999 FEW046 SCT060 OVC080 16/15 A2992 RMK AO2 DZE00RAB00E12DZB12E26 SLP135 $ S (180°) 3.5mph 16°C 15°C
2/07/20 18:16 EGVA 021716Z AUTO 00000KT 9999 -DZ FEW039 SCT048 BKN060 OVC080 16/13 A2992 RMK AO2 DZE00RAB00E12DZB12 SLP135 $ -DZ N (0°) 16°C 13°C
2/07/20 16:56 EGVA 021556Z AUTO 30006KT 9999 FEW028 OVC060 17/15 A2991 RMK AO2 RAE25 SLP131 P0002 T01680148 $ WNW (300°) 6.9mph 16.8°C 14.8°C
2/07/20 15:26 EGVA 021426Z AUTO 26011KT 9999 SCT037 SCT055 OVC080 17/14 A2988 RMK AO2 SLP121 $ W (260°) 12.7mph 17°C 14°C
2/07/20 15:11 EGVA 021411Z AUTO 27014KT 9999 FEW019 FEW028 BKN036 OVC090 18/13 A2988 RMK AO2 SLP121 $ W (270°) 16.1mph 18°C 13°C
2/07/20 14:37 EGVA 021337Z AUTO 26012KT 9999 FEW038 BKN065 OVC075 17/13 A2987 RMK AO2 RAB10E12DZB12E14RAB14E26DZB26E37 SLP118 $ W (260°) 13.8mph 17°C 13°C
2/07/20 14:10 EGVA 021310Z AUTO 26015KT 9999 -RA FEW043 BKN080 18/13 A2986 RMK AO2 RAB10 SLP114 $ -RA W (260°) 17.3mph 18°C 13°C
2/07/20 13:36 EGVA 021236Z AUTO 25016KT 9999 FEW022 SCT039 SCT049 BKN055 20/14 A2985 RMK AO2 SLP110 $ WSW (250°) 18.4mph 20°C 14°C
2/07/20 13:11 EGVA 021211Z AUTO 26016G20KT 9999 SCT022 BKN028 19/14 A2985 RMK AO2 CIG 028V044 SLP110 $ W (260°) 18.4mph 23.0mph 19°C 14°C
2/07/20 12:31 EGVA 021131Z AUTO 25011KT 9999 FEW020 BKN027 BKN060 18/14 A2984 RMK AO2 CIG 027V060 BKN027 V FEW SLP107 $ WSW (250°) 12.7mph 18°C 14°C
2/07/20 12:01 EGVA 021101Z AUTO 28012KT 9999 SCT020 SCT039 BKN055 17/13 A2984 RMK AO2 SLP107 $ W (280°) 13.8mph 17°C 13°C
2/07/20 11:14 EGVA 021014Z AUTO 25012KT 9999 FEW016 SCT037 BKN050 BKN065 15/14 A2983 RMK AO2 RAB0957E09 SLP104 $ WSW (250°) 13.8mph 15°C 14°C
2/07/20 10:45 EGVA 020945Z AUTO 24014KT 9999 BKN019 BKN029 BKN055 17/14 A2981 RMK AO2 RAE00 CIG 018V055 SLP097 $ WSW (240°) 16.1mph 17°C 14°C
2/07/20 10:15 EGVA 020915Z AUTO 29008KT 9999 FEW015 FEW028 SCT040 BKN050 15/14 A2981 RMK AO2 RAE00 SLP097 $ WNW (290°) 9.2mph 15°C 14°C
2/07/20 09:47 EGVA 020847Z AUTO 26011KT 9999 -RA FEW009 SCT020 BKN024 BKN041 BKN050 OVC065 16/13 A2981 RMK AO2 RAB47 CIG 022V027 CIG 021 RWY09 SLP097 $ -RA W (260°) 12.7mph 16°C 13°C
2/07/20 08:56 EGVA 020756Z AUTO 24008KT 9999 BKN009 OVC055 14/13 A2981 RMK AO2 SLP097 T01400130 $ WSW (240°) 9.2mph 14°C 13°C
2/07/20 08:36 EGVA 020736Z AUTO 23009KT 9999 BKN010 BKN018 BKN055 14/13 A2980 RMK AO2 CIG 010V026 BKN010 V SCT CIG 009 RWY09 SLP094 $ SW (230°) 10.4mph 14°C 13°C
2/07/20 08:16 EGVA 020716Z AUTO 24008KT 9999 BKN009 BKN016 OVC080 14/13 A2980 RMK AO2 SLP094 $ WSW (240°) 9.2mph 14°C 13°C
2/07/20 07:26 EGVA 020626Z AUTO 23009KT 9999 BKN008 OVC080 13/12 A2978 RMK AO2 CIG 008V010 SLP087 $ SW (230°) 10.4mph 13°C 12°C
2/07/20 06:56 EGVA 020556Z AUTO 23008KT 9999 SCT008 SCT033 BKN055 OVC080 12/12 A2978 RMK AO2 DZE02 SLP087 P0000 60000 T01240122 10124 20100 53003 $ SW (230°) 9.2mph 12.4°C 12.2°C
2/07/20 06:42 EGVA 020542Z AUTO 23008KT 9999 SCT008 BKN046 BKN060 OVC080 12/12 A2978 RMK AO2 DZE02 SLP087 $ SW (230°) 9.2mph 12°C 12°C
2/07/20 06:02 EGVA 020502Z AUTO 22007KT 9999 SCT007 SCT015 OVC065 12/12 A2977 RMK AO2 DZE02 SLP083 $ SW (220°) 8.1mph 12°C 12°C
2/07/20 05:39 EGVA 020439Z AUTO 27004KT 9999 -RA BKN012 OVC017 11/11 A2977 RMK AO2 RAB39 CIG 012V017 SLP083 $ -RA W (270°) 4.6mph 11°C 11°C
2/07/20 05:11 EGVA 020411Z AUTO 24005KT 9999 BKN013 11/10 A2977 RMK AO2 SLP083 $ WSW (240°) 5.8mph 11°C 10°C
2/07/20 04:42 EGVA 020342Z AUTO 22006KT 9999 FEW015 SCT048 11/10 A2977 RMK AO2 RAE00DZB00E02 SLP083 $ SW (220°) 6.9mph 11°C 10°C
2/07/20 04:02 EGVA 020302Z AUTO 23008KT 9999 FEW017 OVC036 11/11 A2977 RMK AO2 RAE00DZB00E02 SLP083 $ SW (230°) 9.2mph 11°C 11°C
2/07/20 03:50 EGVA 020250Z AUTO 23007KT 9999 -RA SCT017 BKN032 BKN070 11/10 A2977 RMK AO2 RAB50 SLP083 $ -RA SW (230°) 8.1mph 11°C 10°C
2/07/20 02:56 EGVA 020156Z AUTO 24003KT 9999 FEW011 10/10 A2977 RMK AO2 SLP083 T01020096 $ WSW (240°) 3.5mph 10.2°C 9.6°C
2/07/20 01:56 EGVA 020056Z AUTO 25004KT 9999 CLR 10/09 A2977 RMK AO2 SLP083 T01010092 $ WSW (250°) 4.6mph 10.1°C 9.2°C
2/07/20 00:56 EGVA 012356Z AUTO 22006KT 9999 CLR 11/10 A2977 RMK AO2 SLP083 60000 T01070096 10178 20103 402100103 50005 $ SW (220°) 6.9mph 10.7°C 9.6°C
1/07/20 23:56 EGVA 012256Z AUTO 27006KT 9999 FEW070 11/09 A2977 RMK AO2 SLP084 T01050089 $ W (270°) 6.9mph 10.5°C 8.9°C
1/07/20 22:56 EGVA 012156Z AUTO 24008KT 9999 CLR 12/09 A2976 RMK AO2 SLP080 T01240092 $ WSW (240°) 9.2mph 12.4°C 9.2°C
1/07/20 20:56 EGVA 011956Z AUTO 25011KT 9999 OVC085 16/09 A2973 RMK AO2 SLP069 T01570089 $ WSW (250°) 12.7mph 15.7°C 8.9°C
1/07/20 19:56 EGVA 011856Z AUTO 25014KT 9999 OVC090 17/08 A2972 RMK AO2 DZB03E09 SLP066 P0000 T01670081 $ WSW (250°) 16.1mph 16.7°C 8.1°C
1/07/20 19:09 EGVA 011809Z AUTO 24014G19KT 9999 OVC090 17/09 A2972 RMK AO2 DZB03E09 SLP066 $ WSW (240°) 16.1mph 21.9mph 17°C 9°C
1/07/20 17:56 EGVA 011656Z AUTO 25016KT 9999 FEW029 OVC070 18/10 A2970 RMK AO2 SLP059 T01820103 $ WSW (250°) 18.4mph 18.2°C 10.3°C
1/07/20 17:46 EGVA 011646Z AUTO 25016G21KT 9999 SCT029 BKN070 OVC100 19/11 A2970 RMK AO2 SLP059 $ WSW (250°) 18.4mph 24.2mph 19°C 11°C
1/07/20 14:51 EGVA 011351Z AUTO 26018G24KT 9999 FEW030 SCT038 20/13 A2968 RMK AO2 SLP052 $ W (260°) 20.7mph 27.6mph 20°C 13°C
1/07/20 14:36 EGVA 011336Z AUTO 26020G24KT 9999 SCT029 BKN040 BKN100 21/13 A2968 RMK AO2 SLP052 $ W (260°) 23.0mph 27.6mph 21°C 13°C
1/07/20 14:06 EGVA 011306Z AUTO 26018KT 9999 BKN029 BKN042 BKN055 BKN100 21/13 A2968 RMK AO2 CIG 029V055 BKN029 V SCT SLP052 $ W (260°) 20.7mph 21°C 13°C
1/07/20 12:56 EGVA 011156Z AUTO 27017G24KT 9999 FEW037 19/15 A2966 RMK AO2 DZB21E24RAB24E34 SLP045 P0000 60006 70006 T01870146 10187 20140 52003 $ W (270°) 19.6mph 27.6mph 18.7°C 14.6°C
1/07/20 12:39 EGVA 011139Z AUTO 26013G19KT 9999 FEW018 FEW028 SCT036 BKN075 17/15 A2966 RMK AO2 DZB21E24RAB24E34 SLP046 $ W (260°) 15.0mph 21.9mph 17°C 15°C
1/07/20 12:21 EGVA 011121Z AUTO 26020G25KT 9999 FEW011 BKN017 OVC075 17/15 A2966 RMK AO2 CIG 014V020 SLP046 $ W (260°) 23.0mph 28.8mph 17°C 15°C
1/07/20 11:41 EGVA 011041Z AUTO 27012KT 9999 +RA FEW002 FEW006 BKN014 BKN019 BKN027 OVC036 16/15 A2966 RMK AO2 WSHFT 37 DZE02RAB02E17RAB36 CIG 014V019 SLP046 $ +RA W (270°) 13.8mph 16°C 15°C
1/07/20 11:17 EGVA 011017Z AUTO 24011KT 9999 BKN012 BKN019 BKN023 OVC045 16/15 A2966 RMK AO2 DZE02RAB02E17 CIG 010V014 SLP046 $ WSW (240°) 12.7mph 16°C 15°C
1/07/20 10:45 EGVA 010945Z AUTO 24007KT 9999 -RA SCT006 BKN012 BKN021 OVC028 15/15 A2966 RMK AO2 RAB21 CIG 012V021 BKN012 V SCT SLP046 $ -RA WSW (240°) 8.1mph 15°C 15°C
1/07/20 09:56 EGVA 010856Z AUTO 24013KT 9999 BKN014 OVC022 16/13 A2965 RMK AO2 RAB19E28DZB28E31 SLP042 P0000 60000 T01570134 52005 $ WSW (240°) 15.0mph 15.7°C 13.4°C
1/07/20 09:41 EGVA 010841Z AUTO 23011KT 9999 BKN014 OVC020 16/13 A2966 RMK AO2 RAB19E28DZB28E31 SLP046 $ SW (230°) 12.7mph 16°C 13°C
1/07/20 09:19 EGVA 010819Z AUTO 23010KT 9999 -RA OVC015 16/13 A2966 RMK AO2 RAB19 OVC V BKN SLP046 $ -RA SW (230°) 11.5mph 16°C 13°C
1/07/20 07:56 EGVA 010656Z AUTO 22009KT 9999 FEW013 BKN024 BKN070 15/13 A2964 RMK AO2 CIG 012 RWY27 SLP039 T01480127 $ SW (220°) 10.4mph 14.8°C 12.7°C
1/07/20 07:46 EGVA 010646Z AUTO 21008KT 9999 SCT013 BKN024 BKN070 15/13 A2964 RMK AO2 CIG 024V070 SLP038 $ SSW (210°) 9.2mph 15°C 13°C
1/07/20 07:21 EGVA 010621Z AUTO 21007KT 9999 SCT022 SCT029 BKN070 14/13 A2964 RMK AO2 SLP039 $ SSW (210°) 8.1mph 14°C 13°C
1/07/20 06:46 EGVA 010546Z AUTO 22009KT 9999 FEW020 BKN025 BKN030 BKN060 14/13 A2964 RMK AO2 CIG 025V060 SLP039 $ SW (220°) 10.4mph 14°C 13°C
1/07/20 06:11 EGVA 010511Z AUTO 23006KT 9999 FEW019 FEW026 SCT031 SCT050 BKN060 14/13 A2963 RMK AO2 SLP035 $ SW (230°) 6.9mph 14°C 13°C
1/07/20 05:41 EGVA 010441Z AUTO 20007KT 9999 BKN048 13/12 A2963 RMK AO2 SLP036 $ SSW (200°) 8.1mph 13°C 12°C
1/07/20 05:11 EGVA 010411Z AUTO 21005KT 9999 FEW021 BKN049 13/12 A2963 RMK AO2 SLP035 $ SSW (210°) 5.8mph 13°C 12°C
1/07/20 03:56 EGVA 010256Z AUTO 21006KT 9999 OVC045 13/12 A2963 RMK AO2 SLP036 60000 T01300121 57005 $ SSW (210°) 6.9mph 13°C 12.1°C
1/07/20 02:56 EGVA 010156Z AUTO 23006KT 9999 OVC044 14/12 A2964 RMK AO2 SLP039 T01350124 $ SW (230°) 6.9mph 13.5°C 12.4°C
1/07/20 02:06 EGVA 010106Z AUTO 25007KT 9999 BKN030 OVC035 14/13 A2964 RMK AO2 SLP039 $ WSW (250°) 8.1mph 14°C 13°C